Terminal Aerodrome Forecast
Issued by NWS Mt. Holly, NJ

Current Version | Previous Version | Text Only | Print | Product List | Glossary On
Versions: 1 2 3 4 5 6 7 8 9 10 11 12 13 14 15 16 17 18 19 20 21 22 23 24
000
FTUS41 KPHI 270041 AAA
TAFRDG
TAF AMD
KRDG 270041Z 2701/2724 29013KT P6SM OVC090
      TEMPO 2701/2702 -SHRA BKN045
     FM270300 29008KT P6SM FEW250
     FM270500 28004KT P6SM FEW250
     FM271300 00000KT P6SM BKN100
      TEMPO 2715/2719 6SM -SHRA OVC035
     FM271900 00000KT P6SM BKN040=

USA.gov is the U.S. government's official web portal to all federal, state and local government web resources and services.